Time;durP1;ratioP1;P1;durP2;ratioP2;P2;SDS_P1;SDS_P2;PMS_P1;PMS_P2;Temp;Humidity;BMP_temperature;BMP_pressure;BME280_temperature;BME280_humidity;BME280_pressure;Samples;Min_cycle;Max_cycle;Signal;HPM_P1;HPM_P2
2020/12/31 00:00:24;;;;;;;9.77;5.13;;;3.30;99.90;;;3.87;100.00;97122.94;4998437;28;20444;-78
2020/12/31 00:02:52;;;;;;;7.67;5.37;;;3.20;99.90;;;3.89;100.00;97114.03;4995248;28;20459;-79
2020/12/31 00:05:19;;;;;;;6.80;4.43;;;3.30;99.90;;;3.89;100.00;97115.78;5001127;28;21111;-79
2020/12/31 00:07:47;;;;;;;6.63;4.63;;;3.30;99.90;;;3.87;100.00;97115.16;4995784;28;20482;-78
2020/12/31 00:10:15;;;;;;;7.23;4.97;;;3.30;99.90;;;3.88;100.00;97115.00;4997004;28;20522;-79
2020/12/31 00:12:43;;;;;;;8.60;5.10;;;3.40;99.90;;;3.88;100.00;97114.19;4995389;28;20856;-78
2020/12/31 00:15:10;;;;;;;8.97;5.30;;;3.30;99.90;;;3.89;100.00;97103.69;4996718;28;20530;-78
2020/12/31 00:17:38;;;;;;;12.10;5.50;;;3.40;99.90;;;3.89;100.00;97110.63;4994521;28;20487;-78
2020/12/31 00:20:07;;;;;;;7.40;5.07;;;3.30;99.90;;;3.90;100.00;97109.66;4996931;28;20448;-79
2020/12/31 00:22:34;;;;;;;8.17;5.47;;;3.40;99.90;;;3.93;100.00;97099.78;4997137;28;20499;-78
2020/12/31 00:25:03;;;;;;;8.37;5.03;;;3.40;99.90;;;3.92;100.00;97097.38;4997030;28;20468;-80
2020/12/31 00:27:31;;;;;;;11.90;6.60;;;3.40;99.90;;;3.93;100.00;97093.81;4994700;28;20475;-78
2020/12/31 00:29:59;;;;;;;11.40;6.37;;;3.50;99.90;;;3.89;100.00;97100.28;4995837;28;20530;-79
2020/12/31 00:32:26;;;;;;;8.53;5.07;;;3.40;99.90;;;3.86;100.00;97098.84;4996298;28;20452;-78
2020/12/31 00:34:54;;;;;;;6.47;5.20;;;3.30;99.90;;;3.86;100.00;97098.03;4988687;28;20504;-79
2020/12/31 00:37:21;;;;;;;8.07;4.83;;;3.30;99.90;;;3.86;100.00;97092.88;4994353;28;20464;-79
2020/12/31 00:39:49;;;;;;;7.97;4.90;;;3.30;99.90;;;3.85;100.00;97091.28;4994611;28;20534;-79
2020/12/31 00:42:17;;;;;;;7.73;5.07;;;3.40;99.90;;;3.87;100.00;97090.13;4997159;28;20439;-79
2020/12/31 00:44:44;;;;;;;8.60;6.20;;;3.40;99.90;;;3.83;100.00;97088.03;4995422;28;20502;-78
2020/12/31 00:47:13;;;;;;;7.67;5.30;;;3.40;99.90;;;3.89;100.00;97083.00;4996775;28;20443;-79
2020/12/31 00:49:40;;;;;;;8.10;4.70;;;3.40;99.90;;;3.81;100.00;97085.63;4997764;28;20507;-78
2020/12/31 00:52:08;;;;;;;5.57;4.47;;;3.40;99.90;;;3.84;100.00;97087.06;4996605;28;20452;-78
2020/12/31 00:54:35;;;;;;;6.63;4.77;;;3.40;99.90;;;3.81;100.00;97080.47;4996515;28;20464;-78
2020/12/31 00:57:03;;;;;;;7.93;5.00;;;3.40;99.90;;;3.81;100.00;97079.66;4993686;28;20507;-78
2020/12/31 00:59:30;;;;;;;6.73;5.13;;;3.30;99.90;;;3.84;100.00;97081.91;4986502;28;20475;-78
2020/12/31 01:01:58;;;;;;;8.77;5.53;;;3.30;99.90;;;3.82;100.00;97073.47;4996612;28;20432;-79
2020/12/31 01:04:26;;;;;;;8.57;5.00;;;3.30;99.90;;;3.83;100.00;97069.94;4995273;28;20859;-79
2020/12/31 01:06:54;;;;;;;7.77;5.07;;;3.40;99.90;;;3.80;100.00;97070.28;4994819;28;20813;-78
2020/12/31 01:09:21;;;;;;;8.00;4.70;;;3.30;99.90;;;3.81;100.00;97066.72;4994750;28;20522;-78
2020/12/31 01:11:48;;;;;;;10.27;5.60;;;3.20;99.90;;;3.81;100.00;97064.13;4996935;28;20522;-79
2020/12/31 01:14:16;;;;;;;7.70;5.03;;;3.30;99.90;;;3.76;100.00;97067.22;4995558;28;20948;-79
2020/12/31 01:16:49;;;;;;;10.70;5.13;;;3.30;99.90;;;3.74;100.00;97063.19;4995695;28;20492;-79
2020/12/31 01:19:17;;;;;;;7.77;5.10;;;3.10;99.90;;;3.76;100.00;97066.41;4994203;28;20544;-78
2020/12/31 01:21:46;;;;;;;9.77;4.97;;;3.20;99.90;;;3.78;100.00;97069.66;4995842;28;20505;-78
2020/12/31 01:24:14;;;;;;;7.20;4.73;;;3.20;99.90;;;3.77;100.00;97066.25;4996300;28;20460;-78
2020/12/31 01:26:41;;;;;;;5.90;4.50;;;3.20;99.90;;;3.77;100.00;97057.69;4995173;28;20864;-78
2020/12/31 01:29:10;;;;;;;8.27;5.47;;;3.20;99.90;;;3.74;100.00;97058.84;4995165;28;20488;-78
2020/12/31 01:31:37;;;;;;;8.00;5.10;;;3.20;99.90;;;3.74;100.00;97058.03;4993838;28;20462;-78
2020/12/31 01:34:06;;;;;;;10.83;5.00;;;3.20;99.90;;;3.73;100.00;97048.66;4992825;28;20479;-79
2020/12/31 01:36:34;;;;;;;8.73;5.53;;;3.20;99.90;;;3.70;100.00;97052.41;4993758;28;20467;-79
2020/12/31 01:39:02;;;;;;;8.73;5.40;;;3.20;99.90;;;3.71;100.00;97053.22;4995855;28;20977;-78
2020/12/31 01:41:30;;;;;;;6.93;4.97;;;3.20;99.90;;;3.70;100.00;97043.81;4992949;28;20476;-78
2020/12/31 01:44:09;;;;;;;9.00;4.97;;;3.20;99.90;;;3.67;100.00;97042.41;4996357;28;20494;-79
2020/12/31 01:46:38;;;;;;;8.97;5.70;;;3.20;99.90;;;3.68;100.00;97040.63;4992858;28;20463;-78
2020/12/31 01:49:09;;;;;;;6.13;4.37;;;3.10;99.90;;;3.67;100.00;97039.00;4996676;28;20828;-79
2020/12/31 01:51:39;;;;;;;10.20;6.07;;;3.20;99.90;;;3.57;100.00;97041.78;4994798;28;20503;-78
2020/12/31 01:54:08;;;;;;;9.30;5.30;;;3.10;99.90;;;3.59;100.00;97039.03;4994441;28;20460;-79
2020/12/31 01:56:36;;;;;;;9.87;5.33;;;3.10;99.90;;;3.61;100.00;97042.28;4994828;28;20470;-79
2020/12/31 01:59:04;;;;;;;8.00;5.50;;;3.10;99.90;;;3.55;100.00;97036.78;4995136;28;20480;-79
2020/12/31 02:01:32;;;;;;;9.73;6.20;;;3.00;99.90;;;3.50;100.00;97036.50;4992490;28;20475;-78
2020/12/31 02:04:00;;;;;;;10.60;5.73;;;3.00;99.90;;;3.42;100.00;97033.94;4993980;28;20462;-78
2020/12/31 02:06:31;;;;;;;9.70;6.03;;;3.00;99.90;;;3.43;100.00;97032.16;4994311;28;20506;-78
2020/12/31 02:08:58;;;;;;;7.30;5.20;;;2.90;99.90;;;3.39;100.00;97028.28;4994898;28;20463;-78
2020/12/31 02:11:27;;;;;;;12.53;5.23;;;2.90;99.90;;;3.39;100.00;97023.13;4994634;28;20503;-78
2020/12/31 02:13:55;;;;;;;8.57;5.63;;;2.90;99.90;;;3.36;100.00;97029.44;4993529;28;20471;-78
2020/12/31 02:16:26;;;;;;;7.80;5.20;;;2.90;99.90;;;3.32;100.00;97028.16;4995146;28;20847;-79
2020/12/31 02:18:59;;;;;;;7.73;4.90;;;2.80;99.90;;;3.29;100.00;97023.34;4994526;28;20460;-78
2020/12/31 02:21:30;;;;;;;10.50;5.20;;;2.70;99.90;;;3.29;100.00;97022.53;4994260;28;20530;-78
2020/12/31 02:24:01;;;;;;;7.80;5.13;;;2.60;99.90;;;3.30;100.00;97027.50;4993962;28;20549;-78
2020/12/31 02:26:32;;;;;;;7.57;5.57;;;2.70;99.90;;;3.29;100.00;97023.34;4994115;28;20469;-79
2020/12/31 02:29:02;;;;;;;9.57;6.43;;;2.80;99.90;;;3.32;100.00;97030.75;4994722;28;20735;-79
2020/12/31 02:31:32;;;;;;;11.07;6.33;;;2.70;99.90;;;3.31;100.00;97036.06;4993239;28;20517;-78
2020/12/31 02:34:01;;;;;;;11.03;6.17;;;2.80;99.90;;;3.34;100.00;97031.38;4992956;28;20967;-78
2020/12/31 02:36:32;;;;;;;11.23;5.97;;;2.80;99.90;;;3.32;100.00;97028.16;4993835;28;20467;-79
2020/12/31 02:39:06;;;;;;;10.13;6.03;;;2.80;99.90;;;3.27;100.00;97022.69;4995032;28;20583;-78
2020/12/31 02:41:34;;;;;;;14.20;6.47;;;2.80;99.90;;;3.33;100.00;97023.81;4992350;28;20463;-78
2020/12/31 02:44:03;;;;;;;9.70;5.40;;;2.80;99.90;;;3.27;100.00;97034.78;4993216;28;20637;-78
2020/12/31 02:46:32;;;;;;;7.87;5.33;;;2.80;99.90;;;3.19;100.00;97022.72;4994495;28;20521;-79
2020/12/31 02:48:59;;;;;;;9.90;6.23;;;2.70;99.90;;;3.22;100.00;97022.38;4994461;28;20506;-78
2020/12/31 02:51:27;;;;;;;9.10;5.30;;;2.70;99.90;;;3.24;100.00;97023.00;4996977;28;20513;-79
2020/12/31 02:53:55;;;;;;;9.33;6.10;;;2.70;99.90;;;3.24;100.00;97024.78;4993450;28;20474;-79
2020/12/31 02:56:24;;;;;;;11.37;5.00;;;2.70;99.90;;;3.24;100.00;97023.00;4995010;28;21030;-79
2020/12/31 02:58:52;;;;;;;10.43;6.20;;;2.70;99.90;;;3.28;100.00;97023.47;4991847;28;20484;-79
2020/12/31 03:01:21;;;;;;;10.17;5.47;;;2.70;99.90;;;3.29;100.00;97015.59;4994024;28;20469;-78
2020/12/31 03:03:49;;;;;;;9.23;5.50;;;2.80;99.90;;;3.23;100.00;97016.22;4993692;28;21047;-78
2020/12/31 03:06:18;;;;;;;8.00;5.73;;;2.70;99.90;;;3.25;100.00;97026.41;4993486;28;20467;-78
2020/12/31 03:08:46;;;;;;;8.93;5.50;;;2.70;99.90;;;3.27;100.00;97009.75;4990801;28;20495;-78
2020/12/31 03:11:18;;;;;;;8.10;5.23;;;2.80;99.90;;;3.25;100.00;97016.88;4992874;28;20490;-79
2020/12/31 03:13:47;;;;;;;13.17;5.50;;;2.80;99.90;;;3.26;100.00;97013.34;4992199;28;20467;-78
2020/12/31 03:16:15;;;;;;;9.43;5.20;;;2.80;99.90;;;3.27;100.00;97008.94;4991997;28;20589;-79
2020/12/31 03:18:43;;;;;;;10.23;5.80;;;2.70;99.90;;;3.23;100.00;97005.91;4991184;28;20468;-78
2020/12/31 03:21:10;;;;;;;7.60;5.20;;;2.70;99.90;;;3.23;100.00;96995.56;4992701;28;20471;-79
2020/12/31 03:23:38;;;;;;;8.40;5.70;;;2.70;99.90;;;3.25;100.00;96995.41;4992626;28;22186;-79
2020/12/31 03:26:07;;;;;;;7.60;4.87;;;2.70;99.90;;;3.29;100.00;96994.09;4991753;28;20541;-79
2020/12/31 03:28:34;;;;;;;8.10;5.37;;;2.70;99.90;;;3.27;100.00;96986.50;4992491;28;20933;-78
2020/12/31 03:31:03;;;;;;;6.73;4.97;;;2.70;99.90;;;3.27;100.00;96983.94;4993041;28;20509;-78
2020/12/31 03:33:30;;;;;;;10.13;5.07;;;2.70;99.90;;;3.24;100.00;96986.84;4995254;28;20461;-78
2020/12/31 03:35:58;;;;;;;9.43;5.37;;;2.60;99.90;;;3.24;100.00;96983.47;4993796;28;20471;-79
2020/12/31 03:38:25;;;;;;;9.43;5.73;;;2.60;99.90;;;3.26;100.00;96987.50;4990140;28;21017;-79
2020/12/31 03:40:53;;;;;;;11.40;5.10;;;2.60;99.90;;;3.27;100.00;96983.94;4990318;28;20497;-78
2020/12/31 03:43:21;;;;;;;7.03;4.70;;;2.60;99.90;;;3.27;100.00;96978.75;4992448;28;20464;-79
2020/12/31 03:45:48;;;;;;;7.13;4.40;;;2.60;99.90;;;3.25;100.00;96970.38;4991551;28;20545;-78
2020/12/31 03:48:17;;;;;;;12.50;5.70;;;2.60;99.90;;;3.27;100.00;96965.84;4992726;28;20459;-78
2020/12/31 03:50:44;;;;;;;7.70;5.13;;;2.70;99.90;;;3.28;100.00;96956.31;4994893;28;20871;-78
2020/12/31 03:53:12;;;;;;;8.80;4.93;;;2.70;99.90;;;3.27;100.00;96952.94;4991780;28;20463;-78
2020/12/31 03:55:39;;;;;;;7.10;5.20;;;2.60;99.90;;;3.30;100.00;96949.19;4996618;28;20972;-78
2020/12/31 03:58:07;;;;;;;8.60;6.10;;;2.60;99.90;;;3.28;100.00;96946.81;4997531;28;20557;-79
2020/12/31 04:00:34;;;;;;;7.77;5.20;;;2.70;99.90;;;3.26;100.00;96946.19;4998394;28;20452;-79
2020/12/31 04:03:02;;;;;;;9.57;6.00;;;2.70;99.90;;;3.25;100.00;96939.41;4998290;28;20472;-79
2020/12/31 04:05:30;;;;;;;11.23;5.50;;;2.60;99.90;;;3.26;100.00;96930.69;4993720;28;20463;-78
2020/12/31 04:07:58;;;;;;;8.90;5.10;;;2.60;99.90;;;3.29;100.00;96929.53;4998905;28;20462;-78
2020/12/31 04:10:26;;;;;;;8.90;5.80;;;2.70;99.90;;;3.29;100.00;96935.50;4997142;28;20503;-79
2020/12/31 04:12:53;;;;;;;8.27;5.10;;;2.70;99.90;;;3.31;100.00;96932.75;4998796;28;20482;-78
2020/12/31 04:15:20;;;;;;;9.83;5.20;;;2.80;99.90;;;3.32;100.00;96924.03;4997244;28;20849;-78
2020/12/31 04:17:48;;;;;;;9.93;5.90;;;2.80;99.90;;;3.26;100.00;96925.50;4995594;28;22483;-79
2020/12/31 04:20:16;;;;;;;5.40;4.40;;;2.70;99.90;;;3.27;100.00;96924.53;4996400;28;20987;-79
2020/12/31 04:22:44;;;;;;;5.40;4.30;;;2.80;99.90;;;3.27;100.00;96926.28;4997044;28;20961;-79
2020/12/31 04:25:11;;;;;;;6.83;4.57;;;2.70;99.90;;;3.29;100.00;96925.16;4996507;28;20483;-79
2020/12/31 04:27:39;;;;;;;7.33;4.80;;;2.70;99.90;;;3.27;100.00;96921.94;4994456;28;20463;-78
2020/12/31 04:30:06;;;;;;;7.10;4.67;;;2.70;99.90;;;3.31;100.00;96918.06;4990529;28;20594;-78
2020/12/31 04:32:34;;;;;;;8.27;5.03;;;2.80;99.90;;;3.31;100.00;96914.66;4995147;28;20468;-78
2020/12/31 04:35:01;;;;;;;6.53;4.87;;;2.70;99.90;;;3.31;100.00;96918.06;4993844;28;20566;-78
2020/12/31 04:37:29;;;;;;;6.10;4.37;;;2.80;99.90;;;3.31;100.00;96914.66;4993639;28;20820;-78
2020/12/31 04:39:57;;;;;;;6.40;4.60;;;2.80;99.90;;;3.30;100.00;96903.50;4990879;28;20578;-81
2020/12/31 04:42:34;;;;;;;8.57;5.20;;;2.80;99.90;;;3.28;100.00;96913.22;4992771;28;20832;-79
2020/12/31 04:45:04;;;;;;;6.50;4.83;;;2.80;99.90;;;3.30;100.00;96902.69;4993758;28;20467;-79
2020/12/31 04:47:44;;;;;;;8.80;5.10;;;2.80;99.90;;;3.30;100.00;96900.94;4993950;28;20471;-79
2020/12/31 04:50:15;;;;;;;5.30;3.87;;;2.80;99.90;;;3.27;100.00;96901.28;4994111;28;20501;-79
2020/12/31 04:52:43;;;;;;;6.20;3.80;;;2.80;99.90;;;3.23;100.00;96892.25;4994846;28;21003;-78
2020/12/31 04:55:11;;;;;;;8.83;4.37;;;2.70;99.90;;;3.21;100.00;96896.78;4997136;28;20447;-78
2020/12/31 04:57:39;;;;;;;6.20;4.27;;;2.70;99.90;;;3.24;100.00;96891.28;4996144;28;20503;-79
2020/12/31 05:00:06;;;;;;;6.87;5.07;;;2.80;99.90;;;3.24;100.00;96891.28;4997696;28;20452;-79
2020/12/31 05:02:34;;;;;;;15.37;4.63;;;2.80;99.90;;;3.23;100.00;96883.72;4996917;28;20447;-79
2020/12/31 05:05:01;;;;;;;8.13;4.33;;;2.80;99.90;;;3.20;100.00;96890.00;4994873;28;20867;-79
2020/12/31 05:07:29;;;;;;;7.90;4.03;;;2.80;99.90;;;3.17;100.00;96892.94;4995366;28;20985;-79
2020/12/31 05:10:10;;;;;;;7.07;4.57;;;2.70;99.90;;;3.17;100.00;96889.53;4993459;28;20468;-79
2020/12/31 05:12:38;;;;;;;8.50;4.90;;;2.60;99.90;;;3.17;100.00;96886.97;4996379;28;20464;-79
2020/12/31 05:15:06;;;;;;;8.90;4.80;;;2.50;99.90;;;3.17;100.00;96884.38;4995717;28;21081;-79
2020/12/31 05:17:33;;;;;;;7.23;4.40;;;2.50;99.90;;;3.21;100.00;96886.47;4994374;28;20460;-79
2020/12/31 05:20:14;;;;;;;6.60;4.40;;;2.60;99.90;;;3.19;100.00;96887.63;4997683;28;20891;-79
2020/12/31 05:22:41;;;;;;;7.33;4.73;;;2.50;99.90;;;3.22;100.00;96888.09;4996832;28;20485;-79
2020/12/31 05:25:09;;;;;;;6.57;4.00;;;2.60;99.90;;;3.19;100.00;96888.44;4996649;28;20451;-79
2020/12/31 05:27:36;;;;;;;7.23;4.07;;;2.60;99.90;;;3.15;100.00;96889.72;4996139;28;21082;-79
2020/12/31 05:30:07;;;;;;;6.80;4.50;;;2.60;99.90;;;3.15;100.00;96884.56;4993360;28;20491;-78
2020/12/31 05:32:36;;;;;;;11.03;6.10;;;2.50;99.90;;;3.07;100.00;96887.19;4992708;28;20463;-79
2020/12/31 05:35:12;;;;;;;4.87;3.80;;;2.40;99.90;;;3.11;100.00;96885.88;4992266;28;20475;-79
2020/12/31 05:37:40;;;;;;;8.57;4.70;;;2.60;99.90;;;3.10;100.00;96880.88;4990904;28;20751;-79
2020/12/31 05:40:09;;;;;;;6.70;4.10;;;2.60;99.90;;;3.08;100.00;96891.38;4994820;28;20466;-79
2020/12/31 05:42:39;;;;;;;6.57;3.77;;;2.60;99.90;;;3.08;100.00;96878.47;4997039;28;20452;-79
2020/12/31 05:45:14;;;;;;;7.27;4.53;;;2.50;99.90;;;3.04;100.00;96884.94;4996035;28;20550;-79
2020/12/31 05:47:50;;;;;;;7.60;4.17;;;2.50;99.90;;;3.06;100.00;96882.97;4993885;28;20529;-78
2020/12/31 05:50:24;;;;;;;4.63;3.50;;;2.60;99.90;;;3.04;100.00;96880.59;4996824;28;20443;-79
2020/12/31 05:52:53;;;;;;;5.03;3.10;;;2.60;99.90;;;3.01;100.00;96882.69;4994803;28;20537;-79
2020/12/31 05:55:22;;;;;;;7.50;4.50;;;2.50;99.90;;;3.00;100.00;96884.47;4990625;28;20586;-79
2020/12/31 05:57:52;;;;;;;5.87;3.50;;;2.50;99.90;;;3.00;100.00;96881.88;4993718;28;20569;-79
2020/12/31 06:00:24;;;;;;;6.93;4.30;;;2.50;99.90;;;3.02;100.00;96876.53;4992034;28;20575;-80
2020/12/31 06:02:54;;;;;;;4.83;3.60;;;2.50;99.90;;;2.97;100.00;96874.47;4993321;28;20554;-79
2020/12/31 06:05:24;;;;;;;10.30;3.60;;;2.60;99.90;;;2.95;100.00;96871.25;4993634;28;20534;-79
2020/12/31 06:07:53;;;;;;;8.60;4.27;;;2.50;99.90;;;2.95;100.00;96878.22;4993574;28;20447;-79
2020/12/31 06:10:26;;;;;;;3.90;3.10;;;2.50;99.90;;;2.97;100.00;96865.94;4994150;28;20501;-80
2020/12/31 06:12:57;;;;;;;5.03;3.20;;;2.60;99.90;;;2.90;100.00;96867.56;4996457;28;20448;-79
2020/12/31 06:15:31;;;;;;;5.53;3.80;;;2.50;99.90;;;2.90;100.00;96863.22;4994995;28;20477;-79
2020/12/31 06:18:01;;;;;;;9.80;3.73;;;2.50;99.90;;;2.93;100.00;96856.91;4995622;28;21020;-79
2020/12/31 06:20:31;;;;;;;4.93;3.40;;;2.50;99.90;;;2.91;100.00;96859.69;4995599;28;20886;-79
2020/12/31 06:23:05;;;;;;;4.10;3.33;;;2.50;99.90;;;2.94;100.00;96858.53;4994806;28;20463;-79
2020/12/31 06:25:42;;;;;;;4.07;3.03;;;2.50;99.90;;;2.96;100.00;96859.16;4995668;28;20447;-79
2020/12/31 06:28:15;;;;;;;5.33;3.40;;;2.50;99.90;;;2.98;100.00;96849.47;4993253;28;20444;-79
2020/12/31 06:30:47;;;;;;;15.20;6.93;;;2.50;99.90;;;2.95;100.00;96849.81;4995107;28;20803;-79
2020/12/31 06:33:24;;;;;;;4.23;3.50;;;2.50;99.90;;;2.97;100.00;96842.69;4994807;28;20463;-79
2020/12/31 06:35:58;;;;;;;3.97;3.57;;;2.50;99.90;;;2.95;100.00;96839.50;4995358;28;20448;-79
2020/12/31 06:38:42;;;;;;;5.90;3.00;;;2.60;99.90;;;2.97;100.00;96842.69;4994112;28;20478;-79
2020/12/31 06:41:41;;;;;;;5.70;3.60;;;2.50;99.90;;;2.94;100.00;96843.84;4993967;28;20447;-79
2020/12/31 06:44:12;;;;;;;3.60;3.07;;;2.50;99.90;;;2.95;100.00;96834.31;4993629;28;20441;-79
2020/12/31 06:46:42;;;;;;;4.00;2.70;;;2.60;99.90;;;2.93;100.00;96831.09;4993369;28;20920;-79
2020/12/31 06:49:12;;;;;;;2.10;2.00;;;2.50;99.90;;;2.90;100.00;96828.84;4993547;28;20452;-79
2020/12/31 06:51:40;;;;;;;4.30;3.10;;;2.50;99.90;;;2.86;100.00;96830.97;4995010;28;20553;-79
2020/12/31 06:54:08;;;;;;;2.87;2.67;;;2.50;99.90;;;2.83;100.00;96831.31;4993466;28;20440;-79
2020/12/31 06:56:45;;;;;;;3.97;2.67;;;2.40;99.90;;;2.85;100.00;96829.34;4995788;28;20927;-79
2020/12/31 06:59:30;;;;;;;3.50;2.33;;;2.40;99.90;;;2.88;100.00;96833.41;4994559;28;20447;-78
2020/12/31 07:02:00;;;;;;;2.53;2.10;;;2.40;99.90;;;2.88;100.00;96834.16;4997267;28;20459;-79
2020/12/31 07:04:33;;;;;;;4.50;3.17;;;2.40;99.90;;;2.87;100.00;96837.75;4996472;28;21081;-79
2020/12/31 07:07:02;;;;;;;3.50;2.27;;;2.30;99.90;;;2.91;100.00;96836.44;4995785;28;21035;-79
2020/12/31 07:09:36;;;;;;;3.40;2.60;;;2.40;99.90;;;2.86;100.00;96833.56;4995106;28;20443;-79
2020/12/31 07:12:06;;;;;;;5.23;2.70;;;2.30;99.90;;;2.87;100.00;96832.59;4996913;28;20508;-78
2020/12/31 07:14:36;;;;;;;2.50;2.30;;;2.40;99.90;;;2.87;100.00;96836.94;4997043;28;20452;-80
2020/12/31 07:17:09;;;;;;;4.17;2.40;;;2.30;99.90;;;2.84;100.00;96840.66;4996647;28;20494;-80
2020/12/31 07:19:45;;;;;;;2.80;2.33;;;2.30;99.90;;;2.87;100.00;96836.94;4996421;28;20443;-80
2020/12/31 07:22:22;;;;;;;5.30;2.97;;;2.40;99.90;;;2.90;100.00;96836.59;4997631;28;20460;-80
2020/12/31 07:24:53;;;;;;;2.60;2.13;;;2.40;99.90;;;2.88;100.00;96843.72;4995835;28;20455;-80
2020/12/31 07:27:28;;;;;;;2.70;2.40;;;2.40;99.90;;;2.86;100.00;96840.47;4998357;28;20455;-80
2020/12/31 07:30:17;;;;;;;3.00;2.70;;;2.40;99.90;;;2.84;100.00;96848.41;4996403;28;20481;-80
2020/12/31 07:33:01;;;;;;;2.60;2.20;;;2.40;99.90;;;2.83;100.00;96843.41;5001732;28;20522;-80
2020/12/31 07:35:35;;;;;;;2.27;2.07;;;2.40;99.90;;;2.81;100.00;96842.78;5000626;28;20459;-80
2020/12/31 07:38:08;;;;;;;2.80;2.30;;;2.30;99.90;;;2.76;100.00;96839.88;5002305;28;20592;-80
2020/12/31 07:40:40;;;;;;;2.43;2.10;;;2.30;99.90;;;2.77;100.00;96844.09;5000643;28;20497;-79
2020/12/31 07:43:12;;;;;;;2.90;1.90;;;2.30;99.90;;;2.75;100.00;96851.16;5001680;28;20509;-79
2020/12/31 07:45:45;;;;;;;3.53;2.33;;;2.20;99.90;;;2.77;100.00;96851.81;5002049;28;20460;-79
2020/12/31 07:48:14;;;;;;;2.60;2.40;;;2.20;99.90;;;2.76;100.00;96845.03;5002459;28;20864;-80
2020/12/31 07:50:42;;;;;;;2.70;1.97;;;2.30;99.90;;;2.75;100.00;96846.81;5000630;28;21032;-80
2020/12/31 07:53:11;;;;;;;3.53;2.07;;;2.30;99.90;;;2.75;100.00;96853.75;5000172;28;20454;-80
2020/12/31 07:55:47;;;;;;;3.33;2.30;;;2.30;99.90;;;2.72;100.00;96849.75;5001913;28;20447;-80
2020/12/31 07:58:18;;;;;;;1.80;1.70;;;2.30;99.90;;;2.76;100.00;96845.84;5001756;28;20522;-79
2020/12/31 08:00:57;;;;;;;1.90;1.53;;;2.40;99.90;;;2.73;100.00;96847.97;4999908;28;20446;-80
2020/12/31 08:03:26;;;;;;;2.20;1.77;;;2.40;99.90;;;2.69;100.00;96850.06;5000150;28;20455;-80
2020/12/31 08:05:57;;;;;;;2.60;2.00;;;2.30;99.90;;;2.66;100.00;96855.56;4999485;28;20455;-79
2020/12/31 08:08:24;;;;;;;2.97;2.00;;;2.20;99.90;;;2.67;100.00;96852.03;5000061;28;20512;-79
2020/12/31 08:10:52;;;;;;;1.80;1.70;;;2.10;99.90;;;2.72;100.00;96846.34;5000443;28;20493;-79
2020/12/31 08:13:20;;;;;;;3.30;1.60;;;2.20;99.90;;;2.71;100.00;96839.59;5000393;28;20479;-80
2020/12/31 08:15:50;;;;;;;1.33;1.23;;;2.10;99.90;;;2.72;100.00;96843.78;4999476;28;20463;-79
2020/12/31 08:18:19;;;;;;;2.67;1.80;;;2.20;99.90;;;2.72;100.00;96848.94;4999491;28;20504;-79
2020/12/31 08:20:50;;;;;;;3.20;1.60;;;2.10;99.90;;;2.76;100.00;96847.63;4999065;28;20455;-79
2020/12/31 08:23:20;;;;;;;1.60;1.50;;;2.10;99.90;;;2.80;100.00;96848.91;4998969;28;20455;-79
2020/12/31 08:25:51;;;;;;;1.70;1.60;;;2.20;99.90;;;2.74;100.00;96842.63;4999101;28;20443;-79
2020/12/31 08:28:22;;;;;;;1.70;1.53;;;2.10;99.90;;;2.79;100.00;96842.13;4999539;28;20447;-79
2020/12/31 08:30:50;;;;;;;2.20;1.70;;;2.20;99.90;;;2.78;100.00;96838.75;4999358;28;20956;-79
2020/12/31 08:33:24;;;;;;;2.80;2.17;;;2.10;99.90;;;2.82;100.00;96839.22;5000218;28;20502;-79
2020/12/31 08:35:53;;;;;;;5.10;2.40;;;2.20;99.90;;;2.84;100.00;96838.09;4999243;28;20505;-80
2020/12/31 08:38:23;;;;;;;2.33;1.90;;;2.30;99.90;;;2.83;100.00;96833.09;4999665;28;20822;-80
2020/12/31 08:40:53;;;;;;;1.70;1.60;;;2.20;99.90;;;2.83;100.00;96835.66;4999154;28;20444;-79
2020/12/31 08:43:22;;;;;;;1.97;1.63;;;2.20;99.90;;;2.85;100.00;96842.25;4999034;28;20452;-80
2020/12/31 08:45:52;;;;;;;2.47;1.60;;;2.30;99.90;;;2.86;100.00;96835.31;4999094;28;20459;-79
2020/12/31 08:48:24;;;;;;;1.60;1.50;;;2.40;99.90;;;2.86;100.00;96830.16;4999922;28;20503;-79
2020/12/31 08:51:07;;;;;;;1.20;1.10;;;2.40;99.90;;;2.87;100.00;96829.19;5000233;28;21003;-79
2020/12/31 08:53:56;;;;;;;2.80;1.47;;;2.40;99.90;;;2.86;100.00;96825.00;4999551;28;20489;-80
2020/12/31 08:56:26;;;;;;;1.40;1.30;;;2.50;99.90;;;2.83;100.00;96833.88;4999244;28;20452;-79
2020/12/31 08:59:06;;;;;;;1.37;1.23;;;2.40;99.90;;;2.83;100.00;96835.66;4999254;28;20485;-79
2020/12/31 09:01:34;;;;;;;3.23;1.40;;;2.30;99.90;;;2.85;100.00;96833.69;5000557;28;20451;-79
2020/12/31 09:04:10;;;;;;;2.90;1.40;;;2.20;99.90;;;2.83;100.00;96827.91;4999665;28;20505;-80
2020/12/31 09:06:42;;;;;;;1.90;1.53;;;2.30;99.90;;;2.86;100.00;96835.31;4999902;28;20460;-79
2020/12/31 09:09:17;;;;;;;1.50;1.20;;;2.30;99.90;;;2.86;100.00;96830.16;5001213;28;20452;-79
2020/12/31 09:11:58;;;;;;;1.60;1.40;;;2.30;99.90;;;2.85;100.00;96833.69;4999415;28;20617;-79
2020/12/31 09:14:27;;;;;;;1.33;1.23;;;2.30;99.90;;;2.87;100.00;96831.78;4998511;28;20517;-79
2020/12/31 09:16:55;;;;;;;1.50;1.40;;;2.30;99.90;;;2.88;100.00;96828.22;4998196;28;20888;-79
2020/12/31 09:19:23;;;;;;;1.60;1.50;;;2.20;99.90;;;2.88;100.00;96829.00;4999859;28;20464;-79
2020/12/31 09:21:52;;;;;;;1.57;1.40;;;2.30;99.90;;;2.90;100.00;96828.84;4999072;28;20439;-79
2020/12/31 09:24:21;;;;;;;1.50;1.40;;;2.40;99.90;;;2.92;100.00;96832.88;5000333;28;20829;-79
2020/12/31 09:26:53;;;;;;;1.53;1.23;;;2.30;99.90;;;2.95;100.00;96835.09;4998475;28;20459;-79
2020/12/31 09:29:21;;;;;;;1.17;1.07;;;2.40;99.90;;;2.97;100.00;96833.19;4999807;28;20475;-79
2020/12/31 09:31:49;;;;;;;3.10;1.43;;;2.40;99.90;;;2.98;100.00;96832.22;4997609;28;20506;-79
2020/12/31 09:34:17;;;;;;;2.30;1.63;;;2.50;99.90;;;3.00;100.00;96826.84;4998713;28;20461;-79
2020/12/31 09:36:45;;;;;;;1.60;1.43;;;2.50;99.90;;;3.04;100.00;96828.13;4997437;28;20448;-79
2020/12/31 09:39:14;;;;;;;1.40;1.30;;;2.60;99.90;;;3.01;100.00;96829.28;4999797;28;20463;-80
2020/12/31 09:41:41;;;;;;;1.97;1.40;;;2.60;99.90;;;2.98;100.00;96823.66;4999199;28;20849;-79
2020/12/31 09:44:08;;;;;;;2.07;1.70;;;2.60;99.90;;;2.95;100.00;96831.75;4999206;28;20459;-79
2020/12/31 09:46:37;;;;;;;1.43;1.33;;;2.40;99.90;;;2.94;100.00;96832.72;4998968;28;20447;-79
2020/12/31 09:49:04;;;;;;;4.50;3.00;;;2.30;99.90;;;2.98;100.00;96826.25;4997735;28;20447;-79
2020/12/31 09:51:32;;;;;;;1.63;1.53;;;2.40;99.90;;;2.92;100.00;96827.69;4997299;28;20491;-79
2020/12/31 09:54:00;;;;;;;5.20;2.97;;;2.30;99.90;;;2.92;100.00;96824.31;4997062;28;20890;-79
2020/12/31 09:56:31;;;;;;;3.63;1.90;;;2.30;99.90;;;2.97;100.00;96827.19;4998247;28;20467;-80
2020/12/31 09:58:59;;;;;;;1.67;1.57;;;2.30;99.90;;;2.99;100.00;96818.31;4998721;28;20451;-80
2020/12/31 10:01:27;;;;;;;2.13;1.70;;;2.40;99.90;;;3.02;100.00;96823.13;4997607;28;20535;-79
2020/12/31 10:03:54;;;;;;;2.13;1.90;;;2.40;99.90;;;3.05;100.00;96824.59;4997811;28;20448;-80
2020/12/31 10:06:22;;;;;;;2.23;1.70;;;2.40;99.90;;;3.05;100.00;96820.19;4997833;28;20506;-80
2020/12/31 10:08:51;;;;;;;1.80;1.63;;;2.50;99.90;;;3.07;100.00;96817.47;4998843;28;20448;-80
2020/12/31 10:11:19;;;;;;;2.93;1.50;;;2.50;99.90;;;3.12;100.00;96817.78;4998805;28;20499;-80
2020/12/31 10:13:47;;;;;;;1.17;1.07;;;2.50;99.90;;;3.14;100.00;96820.16;4997368;28;20460;-80
2020/12/31 10:16:15;;;;;;;2.10;1.70;;;2.50;99.90;;;3.15;100.00;96814.84;4999625;28;20463;-80
2020/12/31 10:18:42;;;;;;;2.70;1.33;;;2.60;99.90;;;3.15;100.00;96806.28;4998276;28;20940;-80
2020/12/31 10:21:13;;;;;;;2.20;1.80;;;2.60;99.90;;;3.16;100.00;96808.69;4998247;28;20455;-80
2020/12/31 10:23:40;;;;;;;1.67;1.57;;;2.70;99.90;;;3.13;100.00;96801.28;4998542;28;20475;-80
2020/12/31 10:26:08;;;;;;;1.83;1.50;;;2.70;99.90;;;3.16;100.00;96806.09;4997663;28;20458;-80
2020/12/31 10:28:35;;;;;;;1.77;1.67;;;2.80;99.90;;;3.16;100.00;96803.50;4997074;28;20493;-80
2020/12/31 10:31:04;;;;;;;1.67;1.47;;;2.70;99.90;;;3.15;100.00;96796.75;4998099;28;20454;-79
2020/12/31 10:33:31;;;;;;;1.30;1.20;;;2.70;99.90;;;3.14;100.00;96789.97;4997394;28;20460;-80
2020/12/31 10:35:59;;;;;;;2.30;1.57;;;2.70;99.90;;;3.17;100.00;96794.81;4997721;28;20459;-80